createdAt,value
2022-12-31T00:01:16.419Z,5.04
2022-12-31T00:03:46.687Z,4.66
2022-12-31T00:06:18.482Z,4.27
2022-12-31T00:08:48.180Z,4.64
2022-12-31T00:11:17.445Z,4.94
2022-12-31T00:13:47.808Z,4.77
2022-12-31T00:16:18.205Z,5.02
2022-12-31T00:18:48.611Z,5.03
2022-12-31T00:21:19.076Z,4.98
2022-12-31T00:23:48.377Z,4.79
2022-12-31T00:26:19.142Z,4.47
2022-12-31T00:28:49.612Z,4.71
2022-12-31T00:31:20.496Z,4.90
2022-12-31T00:33:50.708Z,4.80
2022-12-31T00:36:22.213Z,4.76
2022-12-31T00:38:53.449Z,4.39
2022-12-31T00:41:22.901Z,4.41
2022-12-31T00:43:51.903Z,4.25
2022-12-31T00:46:21.599Z,4.24
2022-12-31T00:48:51.119Z,4.23
2022-12-31T00:51:23.763Z,4.57
2022-12-31T00:53:52.881Z,4.88
2022-12-31T00:56:23.299Z,4.49
2022-12-31T00:58:52.403Z,4.44
2022-12-31T01:01:23.224Z,4.73
2022-12-31T01:03:54.523Z,5.21
2022-12-31T01:06:25.625Z,5.14
2022-12-31T01:08:55.917Z,5.30
2022-12-31T01:11:29.501Z,5.39
2022-12-31T01:14:00.334Z,5.20
2022-12-31T01:16:31.329Z,5.31
2022-12-31T01:19:00.972Z,5.06
2022-12-31T01:21:31.671Z,4.85
2022-12-31T01:24:01.195Z,4.88
2022-12-31T01:26:30.313Z,5.39
2022-12-31T01:28:59.454Z,5.42
2022-12-31T01:31:28.583Z,5.13
2022-12-31T01:33:57.588Z,5.18
2022-12-31T01:36:28.093Z,5.40
2022-12-31T01:38:59.659Z,5.34
2022-12-31T01:41:30.318Z,5.18
2022-12-31T01:43:59.784Z,5.09
2022-12-31T01:46:35.082Z,5.04
2022-12-31T01:49:07.672Z,5.41
2022-12-31T01:51:36.856Z,5.34
2022-12-31T01:54:10.966Z,5.43
2022-12-31T01:56:41.207Z,5.21
2022-12-31T01:59:10.065Z,5.90
2022-12-31T02:01:40.046Z,5.81
2022-12-31T02:04:11.448Z,6.04
2022-12-31T02:06:42.993Z,6.23
2022-12-31T02:09:14.032Z,5.96
2022-12-31T02:11:43.225Z,5.85
2022-12-31T02:14:16.111Z,5.88
2022-12-31T02:16:49.867Z,6.33
2022-12-31T02:19:52.725Z,6.85
2022-12-31T02:22:32.845Z,6.64
2022-12-31T02:25:16.803Z,6.45
2022-12-31T02:27:53.629Z,6.09
2022-12-31T02:30:25.210Z,5.85
2022-12-31T02:33:09.256Z,6.43
2022-12-31T02:35:46.721Z,6.37
2022-12-31T02:38:19.991Z,6.18
2022-12-31T02:40:49.090Z,6.27
2022-12-31T02:43:18.030Z,6.09
2022-12-31T02:45:50.387Z,6.14
2022-12-31T02:48:39.368Z,6.27
2022-12-31T02:51:16.850Z,6.37
2022-12-31T02:54:08.050Z,6.51
2022-12-31T02:56:40.928Z,6.49
2022-12-31T02:59:31.643Z,6.29
2022-12-31T03:02:17.296Z,6.74
2022-12-31T03:04:50.162Z,6.37
2022-12-31T03:07:22.415Z,6.82
2022-12-31T03:09:51.485Z,6.60
2022-12-31T03:12:39.840Z,6.48
2022-12-31T03:15:20.337Z,6.74
2022-12-31T03:17:54.183Z,6.64
2022-12-31T03:20:42.806Z,6.75
2022-12-31T03:23:13.954Z,6.70
2022-12-31T03:25:42.046Z,6.82
2022-12-31T03:28:13.535Z,6.47
2022-12-31T03:30:44.471Z,6.28
2022-12-31T03:33:15.284Z,6.84
2022-12-31T03:35:46.259Z,6.98
2022-12-31T03:38:15.430Z,7.11
2022-12-31T03:40:45.596Z,6.78
2022-12-31T03:43:14.897Z,6.99
2022-12-31T03:45:43.983Z,6.88
2022-12-31T03:48:14.600Z,7.00
2022-12-31T03:50:43.657Z,6.94
2022-12-31T03:53:12.937Z,7.27
2022-12-31T03:55:41.868Z,7.27
2022-12-31T03:58:10.952Z,7.27
2022-12-31T04:00:40.236Z,7.80
2022-12-31T04:03:09.493Z,7.48
2022-12-31T04:05:40.580Z,8.03
2022-12-31T04:08:10.970Z,7.82
2022-12-31T04:10:39.839Z,7.63
2022-12-31T04:13:08.935Z,7.57
2022-12-31T04:15:38.061Z,7.74
2022-12-31T04:18:07.354Z,7.72
2022-12-31T04:20:36.448Z,8.47
2022-12-31T04:23:07.839Z,7.84
2022-12-31T04:25:36.297Z,8.48
2022-12-31T04:28:05.751Z,8.33
2022-12-31T04:30:34.839Z,8.51
2022-12-31T04:33:04.100Z,8.34
2022-12-31T04:35:33.284Z,8.42
2022-12-31T04:38:02.346Z,8.01
2022-12-31T04:40:32.619Z,8.17
2022-12-31T04:43:01.824Z,8.09
2022-12-31T04:45:30.759Z,8.78
2022-12-31T04:47:59.769Z,8.66
2022-12-31T04:50:28.928Z,8.59
2022-12-31T04:52:57.665Z,8.91
2022-12-31T04:55:26.696Z,8.44
2022-12-31T04:57:57.171Z,8.54
2022-12-31T05:00:26.314Z,8.96
2022-12-31T05:02:55.603Z,9.06
2022-12-31T05:05:24.742Z,9.04
2022-12-31T05:07:56.834Z,8.94
2022-12-31T05:10:26.984Z,9.02
2022-12-31T05:12:57.619Z,9.13
2022-12-31T05:15:26.670Z,9.00
2022-12-31T05:17:56.740Z,9.03
2022-12-31T05:20:25.863Z,9.20
2022-12-31T05:22:57.006Z,9.04
2022-12-31T05:25:26.224Z,9.19
2022-12-31T05:27:56.880Z,9.26
2022-12-31T05:30:26.681Z,9.12
2022-12-31T05:32:55.927Z,9.57
2022-12-31T05:35:24.957Z,9.14
2022-12-31T05:37:53.836Z,9.31
2022-12-31T05:40:23.012Z,9.17
2022-12-31T05:42:52.194Z,9.09
2022-12-31T05:45:28.370Z,9.66
2022-12-31T05:48:00.138Z,9.34
2022-12-31T05:50:29.262Z,9.72
2022-12-31T05:52:58.358Z,9.48
2022-12-31T05:55:27.133Z,9.41
2022-12-31T05:57:56.287Z,9.91
2022-12-31T06:00:26.842Z,9.82
2022-12-31T06:02:56.032Z,9.83
2022-12-31T06:05:26.794Z,9.74
2022-12-31T06:07:55.189Z,9.84
2022-12-31T06:10:24.344Z,10.07
2022-12-31T06:12:53.499Z,9.26
2022-12-31T06:15:22.555Z,9.28
2022-12-31T06:17:52.956Z,9.77
2022-12-31T06:20:22.025Z,9.89
2022-12-31T06:22:50.623Z,9.76
2022-12-31T06:25:19.728Z,9.50
2022-12-31T06:27:49.004Z,9.59
2022-12-31T06:30:18.073Z,9.28
2022-12-31T06:32:47.151Z,10.00
2022-12-31T06:35:17.849Z,9.79
2022-12-31T06:37:46.503Z,9.51
2022-12-31T06:40:15.698Z,9.72
2022-12-31T06:42:44.796Z,10.12
2022-12-31T06:45:13.926Z,10.03
2022-12-31T06:47:43.091Z,10.13
2022-12-31T06:50:12.648Z,9.73
2022-12-31T06:52:42.771Z,10.11
2022-12-31T06:55:13.923Z,10.52
2022-12-31T06:57:43.396Z,10.26
2022-12-31T07:00:15.911Z,10.42
2022-12-31T07:03:00.684Z,10.22
2022-12-31T07:05:40.941Z,10.50
2022-12-31T07:08:23.415Z,10.04
2022-12-31T07:10:55.943Z,10.33
2022-12-31T07:13:48.193Z,10.20
2022-12-31T07:16:31.988Z,10.36
2022-12-31T07:19:08.292Z,10.23
2022-12-31T07:21:39.668Z,10.33
2022-12-31T07:24:12.758Z,10.76
2022-12-31T07:26:56.735Z,10.04
2022-12-31T07:29:34.759Z,10.71
2022-12-31T07:32:08.865Z,10.46
2022-12-31T07:34:42.699Z,10.12
2022-12-31T07:37:16.239Z,10.84
2022-12-31T07:39:54.368Z,11.22
2022-12-31T07:42:27.168Z,11.24
2022-12-31T07:45:03.803Z,11.13
2022-12-31T07:47:33.317Z,10.69
2022-12-31T07:50:02.856Z,11.25
2022-12-31T07:52:32.054Z,11.25
2022-12-31T07:55:02.450Z,10.86
2022-12-31T07:57:32.709Z,11.11
2022-12-31T08:00:08.459Z,11.15
2022-12-31T08:03:05.445Z,11.63
2022-12-31T08:05:43.204Z,10.87
2022-12-31T08:08:21.001Z,11.38
2022-12-31T08:11:00.914Z,11.32
2022-12-31T08:13:30.170Z,11.19
2022-12-31T08:15:59.607Z,11.70
2022-12-31T08:18:29.087Z,10.93
2022-12-31T08:21:04.732Z,11.37
2022-12-31T08:23:36.684Z,11.88
2022-12-31T08:26:20.365Z,12.09
2022-12-31T08:29:04.329Z,11.93
2022-12-31T08:31:40.208Z,11.31
2022-12-31T08:34:15.760Z,11.23
2022-12-31T08:36:53.732Z,11.29
2022-12-31T08:39:31.723Z,11.44
2022-12-31T08:42:04.995Z,11.43
2022-12-31T08:44:38.049Z,11.66
2022-12-31T08:47:13.453Z,12.05
2022-12-31T08:49:45.758Z,11.91
2022-12-31T08:52:17.817Z,12.25
2022-12-31T08:54:47.387Z,12.64
2022-12-31T08:57:26.648Z,12.26
2022-12-31T09:00:03.896Z,12.22
2022-12-31T09:02:48.180Z,13.25
2022-12-31T09:05:22.651Z,13.51
2022-12-31T09:08:04.771Z,12.72
2022-12-31T09:10:38.246Z,12.57
2022-12-31T09:13:15.267Z,13.25
2022-12-31T09:15:47.351Z,13.26
2022-12-31T09:18:16.886Z,13.18
2022-12-31T09:20:46.393Z,12.55
2022-12-31T09:23:16.154Z,12.36
2022-12-31T09:25:50.285Z,12.58
2022-12-31T09:28:33.039Z,12.23
2022-12-31T09:31:07.419Z,12.65
2022-12-31T09:33:43.171Z,12.45
2022-12-31T09:36:17.794Z,12.21
2022-12-31T09:38:52.697Z,12.27
2022-12-31T09:41:41.721Z,12.16
2022-12-31T09:44:51.766Z,12.90
2022-12-31T09:47:47.166Z,12.80
2022-12-31T09:50:37.751Z,12.82
2022-12-31T09:53:31.281Z,12.60
2022-12-31T09:56:06.465Z,13.20
2022-12-31T09:58:43.556Z,14.01
2022-12-31T10:01:23.545Z,14.00
2022-12-31T10:04:10.943Z,15.40
2022-12-31T10:06:46.724Z,14.37
2022-12-31T10:09:29.790Z,13.60
2022-12-31T10:12:25.076Z,14.54
2022-12-31T10:15:13.842Z,13.37
2022-12-31T10:17:50.810Z,15.15
2022-12-31T10:20:44.903Z,16.52
2022-12-31T10:23:37.452Z,18.21
2022-12-31T10:26:13.236Z,18.07
2022-12-31T10:28:51.408Z,16.04
2022-12-31T10:31:35.154Z,14.97
2022-12-31T10:34:14.679Z,15.15
2022-12-31T10:37:07.365Z,14.88
2022-12-31T10:39:46.853Z,14.68
2022-12-31T10:42:49.693Z,15.09
2022-12-31T10:46:07.655Z,14.25
2022-12-31T10:49:06.862Z,14.16
2022-12-31T10:52:13.689Z,14.48
2022-12-31T10:55:24.357Z,14.50
2022-12-31T10:58:09.670Z,14.67
2022-12-31T11:00:42.245Z,15.75
2022-12-31T11:04:03.675Z,15.69
2022-12-31T11:07:17.155Z,16.90
2022-12-31T11:10:14.102Z,16.34
2022-12-31T11:12:59.397Z,14.92
2022-12-31T11:15:51.841Z,14.44
2022-12-31T11:18:28.375Z,14.81
2022-12-31T11:21:08.267Z,14.80
2022-12-31T11:23:42.635Z,14.61
2022-12-31T11:26:19.568Z,14.29
2022-12-31T11:29:10.129Z,14.59
2022-12-31T11:31:58.185Z,14.52
2022-12-31T11:34:53.388Z,14.58
2022-12-31T11:37:32.370Z,14.29
2022-12-31T11:40:13.853Z,14.29
2022-12-31T11:42:50.635Z,15.19
2022-12-31T11:45:33.951Z,15.75
2022-12-31T11:51:06.499Z,16.15
2022-12-31T11:53:55.337Z,15.88
2022-12-31T11:56:28.432Z,14.97
2022-12-31T11:58:58.750Z,14.89
2022-12-31T12:01:32.264Z,15.58
2022-12-31T12:04:01.579Z,15.51
2022-12-31T12:06:33.910Z,15.37
2022-12-31T12:09:09.577Z,15.19
2022-12-31T12:11:40.653Z,15.03
2022-12-31T12:14:22.201Z,15.84
2022-12-31T12:16:59.172Z,15.69
2022-12-31T12:19:34.421Z,15.58
2022-12-31T12:22:11.898Z,15.63
2022-12-31T12:24:41.472Z,15.24
2022-12-31T12:27:23.658Z,14.77
2022-12-31T12:29:54.201Z,14.12
2022-12-31T12:32:25.068Z,14.44
2022-12-31T12:34:54.321Z,14.04
2022-12-31T12:37:29.100Z,14.37
2022-12-31T12:39:59.857Z,14.03
2022-12-31T12:42:29.225Z,13.71
2022-12-31T12:45:09.145Z,14.45
2022-12-31T12:47:38.437Z,14.37
2022-12-31T12:50:13.885Z,14.40
2022-12-31T12:53:02.069Z,14.34
2022-12-31T12:55:37.489Z,14.01
2022-12-31T12:58:19.152Z,14.29
2022-12-31T13:00:55.160Z,14.04
2022-12-31T13:03:48.695Z,14.61
2022-12-31T13:06:38.040Z,14.51
2022-12-31T13:09:20.111Z,14.28
2022-12-31T13:12:02.298Z,14.14
2022-12-31T13:14:39.967Z,14.10
2022-12-31T13:17:26.154Z,14.55
2022-12-31T13:20:00.677Z,14.42
2022-12-31T13:22:34.998Z,14.43
2022-12-31T13:25:08.018Z,14.78
2022-12-31T13:27:40.375Z,14.78
2022-12-31T13:30:16.923Z,14.46
2022-12-31T13:32:50.595Z,14.47
2022-12-31T13:35:26.872Z,14.33
2022-12-31T13:38:05.408Z,14.65
2022-12-31T13:40:42.596Z,14.56
2022-12-31T13:43:18.344Z,14.97
2022-12-31T13:45:50.274Z,14.89
2022-12-31T13:48:29.438Z,14.94
2022-12-31T13:51:02.428Z,14.28
2022-12-31T13:53:38.132Z,14.60
2022-12-31T13:56:11.172Z,15.12
2022-12-31T13:58:43.196Z,14.82
2022-12-31T14:01:16.421Z,15.28
2022-12-31T14:03:51.995Z,15.20
2022-12-31T14:06:26.990Z,15.37
2022-12-31T14:08:56.064Z,14.96
2022-12-31T14:11:38.170Z,15.03
2022-12-31T14:14:15.814Z,15.41
2022-12-31T14:16:50.335Z,15.00
2022-12-31T14:19:31.736Z,14.89
2022-12-31T14:22:07.100Z,16.41
2022-12-31T14:24:44.982Z,15.24
2022-12-31T14:27:18.001Z,15.63
2022-12-31T14:29:50.307Z,16.18
2022-12-31T14:32:57.353Z,15.12
2022-12-31T14:35:45.041Z,15.96
2022-12-31T14:38:21.744Z,15.81
2022-12-31T14:40:58.303Z,15.52
2022-12-31T14:43:36.924Z,15.45
2022-12-31T14:46:13.388Z,16.26
2022-12-31T14:48:50.170Z,16.40
2022-12-31T14:51:20.754Z,15.96
2022-12-31T14:53:56.954Z,16.17
2022-12-31T14:56:32.173Z,16.13
2022-12-31T14:59:01.719Z,16.48
2022-12-31T15:01:30.755Z,16.52
2022-12-31T15:03:59.846Z,15.90
2022-12-31T15:06:43.327Z,15.85
2022-12-31T15:09:30.243Z,16.21
2022-12-31T15:12:25.081Z,15.96
2022-12-31T15:15:17.275Z,15.95
2022-12-31T15:17:54.216Z,15.51
2022-12-31T15:20:35.724Z,16.46
2022-12-31T15:23:14.874Z,16.48
2022-12-31T15:25:49.616Z,16.71
2022-12-31T15:28:32.213Z,16.05
2022-12-31T15:31:04.995Z,15.74
2022-12-31T15:33:36.557Z,15.79
2022-12-31T15:36:18.210Z,15.23
2022-12-31T15:38:49.831Z,15.92
2022-12-31T15:41:29.057Z,16.56
2022-12-31T15:43:59.858Z,16.25
2022-12-31T15:46:32.040Z,15.33
2022-12-31T15:49:08.991Z,16.65
2022-12-31T15:51:46.023Z,15.28
2022-12-31T15:54:25.055Z,15.65
2022-12-31T15:56:54.579Z,15.53
2022-12-31T15:59:26.207Z,15.17
2022-12-31T16:01:56.209Z,15.70
2022-12-31T16:04:26.290Z,15.76
2022-12-31T16:06:55.611Z,15.85
2022-12-31T16:09:28.152Z,15.43
2022-12-31T16:11:58.068Z,15.48
2022-12-31T16:14:28.728Z,15.96
2022-12-31T16:16:59.291Z,16.01
2022-12-31T16:19:35.877Z,16.05
2022-12-31T16:22:12.565Z,15.76
2022-12-31T16:25:10.888Z,16.33
2022-12-31T16:27:33.734Z,15.95
2022-12-31T16:30:07.232Z,16.18
2022-12-31T16:32:38.597Z,16.05
2022-12-31T16:35:23.820Z,15.75
2022-12-31T16:38:10.144Z,16.21
2022-12-31T16:40:40.848Z,16.41
2022-12-31T16:43:27.459Z,16.05
2022-12-31T16:45:58.687Z,15.55
2022-12-31T16:48:27.962Z,15.97
2022-12-31T16:50:58.232Z,15.66
2022-12-31T16:53:29.936Z,15.83
2022-12-31T16:56:03.045Z,15.58
2022-12-31T16:58:33.853Z,15.76
2022-12-31T17:01:12.110Z,15.74
2022-12-31T17:03:43.789Z,16.60
2022-12-31T17:06:15.936Z,16.16
2022-12-31T17:08:46.348Z,16.46
2022-12-31T17:11:25.843Z,15.98
2022-12-31T17:13:57.721Z,15.85
2022-12-31T17:16:27.283Z,16.05
2022-12-31T17:18:56.442Z,16.25
2022-12-31T17:21:28.061Z,16.49
2022-12-31T17:23:58.489Z,15.99
2022-12-31T17:26:31.229Z,16.35
2022-12-31T17:29:01.326Z,17.06
2022-12-31T17:31:31.864Z,17.30
2022-12-31T17:34:24.847Z,16.00
2022-12-31T17:37:00.017Z,17.16
2022-12-31T17:39:42.208Z,16.03
2022-12-31T17:42:13.770Z,16.00
2022-12-31T17:44:44.212Z,15.91
2022-12-31T17:47:14.189Z,15.81
2022-12-31T17:49:44.449Z,15.83
2022-12-31T17:52:14.910Z,16.32
2022-12-31T17:54:44.244Z,17.18
2022-12-31T17:57:26.031Z,16.84
2022-12-31T17:59:55.194Z,16.47
2022-12-31T18:02:24.251Z,16.90
2022-12-31T18:04:53.235Z,16.79
2022-12-31T18:07:22.263Z,17.45
2022-12-31T18:09:51.255Z,17.09
2022-12-31T18:12:20.743Z,17.15
2022-12-31T18:14:51.153Z,17.47
2022-12-31T18:17:19.790Z,17.78
2022-12-31T18:20:04.613Z,16.50
2022-12-31T18:22:33.989Z,17.07
2022-12-31T18:25:03.182Z,16.96
2022-12-31T18:27:34.054Z,16.20
2022-12-31T18:30:05.128Z,16.59
2022-12-31T18:32:37.433Z,16.55
2022-12-31T18:35:08.242Z,16.47
2022-12-31T18:37:37.777Z,16.52
2022-12-31T18:40:07.862Z,16.76
2022-12-31T18:42:37.443Z,16.49
2022-12-31T18:45:14.837Z,16.88
2022-12-31T18:47:43.896Z,16.99
2022-12-31T18:50:15.390Z,17.02
2022-12-31T18:52:44.281Z,17.16
2022-12-31T18:55:23.976Z,17.11
2022-12-31T18:57:54.060Z,17.49
2022-12-31T19:00:24.652Z,17.21
2022-12-31T19:02:53.687Z,16.94
2022-12-31T19:05:24.661Z,17.18
2022-12-31T19:07:53.302Z,17.05
2022-12-31T19:10:22.879Z,16.83
2022-12-31T19:12:51.949Z,16.94
2022-12-31T19:15:30.494Z,17.56
2022-12-31T19:17:59.517Z,17.50
2022-12-31T19:20:29.391Z,16.97
2022-12-31T19:22:58.536Z,17.22
2022-12-31T19:25:29.543Z,17.01
2022-12-31T19:27:58.633Z,17.39
2022-12-31T19:30:30.953Z,17.41
2022-12-31T19:33:00.111Z,17.24
2022-12-31T19:35:29.252Z,16.55
2022-12-31T19:37:59.838Z,16.88
2022-12-31T19:40:29.311Z,17.20
2022-12-31T19:42:59.133Z,16.66
2022-12-31T19:45:32.164Z,17.86
2022-12-31T19:48:01.411Z,18.09
2022-12-31T19:50:30.744Z,19.06
2022-12-31T19:53:02.235Z,19.16
2022-12-31T19:55:31.066Z,18.06
2022-12-31T19:58:01.405Z,19.56
2022-12-31T20:00:31.538Z,18.83
2022-12-31T20:03:01.436Z,19.34
2022-12-31T20:05:30.643Z,19.70
2022-12-31T20:07:59.720Z,19.13
2022-12-31T20:10:28.549Z,18.69
2022-12-31T20:12:57.571Z,19.24
2022-12-31T20:15:26.640Z,19.34
2022-12-31T20:17:58.738Z,19.37
2022-12-31T20:20:30.356Z,19.60
2022-12-31T20:22:59.138Z,19.19
2022-12-31T20:25:28.292Z,18.39
2022-12-31T20:27:57.514Z,18.62
2022-12-31T20:30:27.760Z,18.54
2022-12-31T20:32:58.463Z,19.46
2022-12-31T20:35:28.048Z,19.70
2022-12-31T20:37:56.675Z,20.02
2022-12-31T20:40:25.717Z,17.84
2022-12-31T20:42:54.890Z,17.05
2022-12-31T20:45:25.105Z,16.70
2022-12-31T20:47:54.470Z,16.14
2022-12-31T20:50:25.158Z,15.93
2022-12-31T20:52:54.017Z,16.37
2022-12-31T20:55:23.351Z,16.23
2022-12-31T20:57:54.028Z,16.40
2022-12-31T21:00:23.241Z,16.33
2022-12-31T21:03:03.854Z,16.22
2022-12-31T21:05:39.003Z,16.09
2022-12-31T21:08:08.777Z,16.40
2022-12-31T21:10:37.608Z,16.40
2022-12-31T21:13:05.576Z,16.62
2022-12-31T21:15:34.665Z,16.48
2022-12-31T21:18:03.795Z,16.11
2022-12-31T21:20:32.795Z,16.32
2022-12-31T21:23:03.272Z,16.36
2022-12-31T21:25:32.059Z,16.35
2022-12-31T21:28:01.033Z,16.49
2022-12-31T21:30:30.008Z,16.39
2022-12-31T21:32:59.209Z,16.04
2022-12-31T21:35:48.688Z,16.15
2022-12-31T21:38:18.560Z,16.16
2022-12-31T21:40:47.764Z,16.26
2022-12-31T21:43:17.376Z,16.35
2022-12-31T21:45:46.595Z,16.13
2022-12-31T21:48:24.983Z,15.98
2022-12-31T21:50:55.887Z,15.84
2022-12-31T21:53:34.238Z,15.98
2022-12-31T21:56:11.911Z,16.28
2022-12-31T21:58:42.706Z,16.15
2022-12-31T22:01:34.868Z,16.13
2022-12-31T22:04:04.062Z,15.95
2022-12-31T22:06:34.533Z,16.16
2022-12-31T22:09:05.261Z,16.14
2022-12-31T22:11:34.305Z,16.29
2022-12-31T22:14:03.409Z,15.96
2022-12-31T22:16:32.347Z,15.92
2022-12-31T22:19:01.342Z,16.03
2022-12-31T22:21:30.392Z,15.88
2022-12-31T22:24:00.033Z,15.82
2022-12-31T22:26:30.816Z,16.02
2022-12-31T22:29:00.362Z,15.97
2022-12-31T22:31:31.301Z,15.83
2022-12-31T22:34:00.860Z,16.28
2022-12-31T22:36:29.993Z,15.91
2022-12-31T22:38:59.629Z,16.10
2022-12-31T22:41:30.737Z,16.27
2022-12-31T22:44:04.834Z,16.43
2022-12-31T22:46:34.836Z,16.26
2022-12-31T22:49:05.234Z,16.59
2022-12-31T22:51:56.617Z,16.58
2022-12-31T22:54:23.376Z,16.18
2022-12-31T22:56:53.760Z,16.09
2022-12-31T22:59:24.030Z,16.28
2022-12-31T23:01:52.690Z,15.98
2022-12-31T23:04:22.015Z,16.32
2022-12-31T23:06:51.147Z,16.28
2022-12-31T23:09:37.839Z,16.26
2022-12-31T23:12:10.006Z,16.48
2022-12-31T23:14:56.556Z,16.21
2022-12-31T23:17:45.257Z,16.13
2022-12-31T23:20:34.928Z,16.20
2022-12-31T23:23:07.148Z,16.36
2022-12-31T23:25:37.481Z,16.21
2022-12-31T23:28:08.533Z,16.22
2022-12-31T23:30:39.689Z,16.58
2022-12-31T23:33:09.111Z,16.30
2022-12-31T23:35:38.195Z,16.38
2022-12-31T23:38:07.246Z,16.40
2022-12-31T23:40:35.903Z,16.47
2022-12-31T23:43:06.195Z,16.44
2022-12-31T23:45:36.426Z,16.53
2022-12-31T23:48:05.968Z,16.47
2022-12-31T23:50:35.167Z,16.17
2022-12-31T23:53:04.115Z,16.20
2022-12-31T23:55:32.775Z,15.98
2022-12-31T23:58:01.749Z,15.96
